sensor_id;sensor_type;location;lat;lon;timestamp;temperature;humidity
25732;DHT22;13585;50.864;4.406;2023-02-26T00:00:36;15.70;70.20
25732;DHT22;13585;50.864;4.406;2023-02-26T00:03:01;15.70;70.20
25732;DHT22;13585;50.864;4.406;2023-02-26T00:05:27;15.70;70.10
25732;DHT22;13585;50.864;4.406;2023-02-26T00:07:53;15.70;70.10
25732;DHT22;13585;50.864;4.406;2023-02-26T00:10:19;15.60;70.10
25732;DHT22;13585;50.864;4.406;2023-02-26T00:12:48;15.70;70.10
25732;DHT22;13585;50.864;4.406;2023-02-26T00:15:14;15.70;70.10
25732;DHT22;13585;50.864;4.406;2023-02-26T00:20:28;15.60;70.10
25732;DHT22;13585;50.864;4.406;2023-02-26T00:22:57;15.60;70.80
25732;DHT22;13585;50.864;4.406;2023-02-26T00:25:22;15.60;70.00
25732;DHT22;13585;50.864;4.406;2023-02-26T00:27:48;15.70;70.00
25732;DHT22;13585;50.864;4.406;2023-02-26T00:30:14;15.60;69.90
25732;DHT22;13585;50.864;4.406;2023-02-26T00:32:40;15.60;69.90
25732;DHT22;13585;50.864;4.406;2023-02-26T00:35:08;15.60;69.90
25732;DHT22;13585;50.864;4.406;2023-02-26T00:40:07;15.60;69.80
25732;DHT22;13585;50.864;4.406;2023-02-26T00:42:48;15.60;69.80
25732;DHT22;13585;50.864;4.406;2023-02-26T00:45:14;15.60;69.80
25732;DHT22;13585;50.864;4.406;2023-02-26T00:50:23;15.60;69.70
25732;DHT22;13585;50.864;4.406;2023-02-26T00:55:26;15.60;69.70
25732;DHT22;13585;50.864;4.406;2023-02-26T00:57:52;15.60;69.70
25732;DHT22;13585;50.864;4.406;2023-02-26T01:00:19;15.60;69.60
25732;DHT22;13585;50.864;4.406;2023-02-26T01:02:46;15.60;69.60
25732;DHT22;13585;50.864;4.406;2023-02-26T01:05:12;15.60;70.40
25732;DHT22;13585;50.864;4.406;2023-02-26T01:10:19;15.50;69.60
25732;DHT22;13585;50.864;4.406;2023-02-26T01:12:45;15.60;69.50
25732;DHT22;13585;50.864;4.406;2023-02-26T01:15:12;15.50;69.40
25732;DHT22;13585;50.864;4.406;2023-02-26T01:18:01;15.60;69.50
25732;DHT22;13585;50.864;4.406;2023-02-26T01:20:37;15.50;69.50
25732;DHT22;13585;50.864;4.406;2023-02-26T01:23:13;15.50;69.40
25732;DHT22;13585;50.864;4.406;2023-02-26T01:28:05;15.50;69.40
25732;DHT22;13585;50.864;4.406;2023-02-26T01:30:32;15.50;69.30
25732;DHT22;13585;50.864;4.406;2023-02-26T01:35:52;15.50;69.20
25732;DHT22;13585;50.864;4.406;2023-02-26T01:43:54;15.50;69.10
25732;DHT22;13585;50.864;4.406;2023-02-26T01:49:17;15.50;69.10
25732;DHT22;13585;50.864;4.406;2023-02-26T01:51:57;15.50;69.10
25732;DHT22;13585;50.864;4.406;2023-02-26T01:54:35;15.50;69.10
25732;DHT22;13585;50.864;4.406;2023-02-26T01:57:13;15.50;69.00
25732;DHT22;13585;50.864;4.406;2023-02-26T01:59:44;15.40;69.00
25732;DHT22;13585;50.864;4.406;2023-02-26T02:02:13;15.40;69.00
25732;DHT22;13585;50.864;4.406;2023-02-26T02:04:41;15.50;69.80
25732;DHT22;13585;50.864;4.406;2023-02-26T02:07:07;15.40;69.00
25732;DHT22;13585;50.864;4.406;2023-02-26T02:09:33;15.50;69.00
25732;DHT22;13585;50.864;4.406;2023-02-26T02:12:07;15.40;68.90
25732;DHT22;13585;50.864;4.406;2023-02-26T02:31:51;15.50;68.80
25732;DHT22;13585;50.864;4.406;2023-02-26T02:34:48;15.40;68.60
25732;DHT22;13585;50.864;4.406;2023-02-26T02:37:45;15.40;68.80
25732;DHT22;13585;50.864;4.406;2023-02-26T02:40:21;15.40;68.80
25732;DHT22;13585;50.864;4.406;2023-02-26T02:43:09;15.40;68.60
25732;DHT22;13585;50.864;4.406;2023-02-26T02:46:05;15.40;68.60
25732;DHT22;13585;50.864;4.406;2023-02-26T02:48:35;15.40;68.70
25732;DHT22;13585;50.864;4.406;2023-02-26T02:51:07;15.40;68.40
25732;DHT22;13585;50.864;4.406;2023-02-26T02:53:44;15.40;68.40
25732;DHT22;13585;50.864;4.406;2023-02-26T02:56:13;15.40;68.40
25732;DHT22;13585;50.864;4.406;2023-02-26T02:58:45;15.40;68.30
25732;DHT22;13585;50.864;4.406;2023-02-26T03:01:15;15.40;68.20
25732;DHT22;13585;50.864;4.406;2023-02-26T03:03:45;15.40;68.20
25732;DHT22;13585;50.864;4.406;2023-02-26T03:06:13;15.40;68.10
25732;DHT22;13585;50.864;4.406;2023-02-26T03:08:40;15.40;68.00
25732;DHT22;13585;50.864;4.406;2023-02-26T03:11:07;15.40;67.90
25732;DHT22;13585;50.864;4.406;2023-02-26T03:13:33;15.30;67.80
25732;DHT22;13585;50.864;4.406;2023-02-26T03:19:07;15.30;67.60
25732;DHT22;13585;50.864;4.406;2023-02-26T03:24:27;15.30;67.50
25732;DHT22;13585;50.864;4.406;2023-02-26T03:26:57;15.30;67.50
25732;DHT22;13585;50.864;4.406;2023-02-26T03:29:32;15.30;67.30
25732;DHT22;13585;50.864;4.406;2023-02-26T03:32:05;15.30;67.30
25732;DHT22;13585;50.864;4.406;2023-02-26T03:37:37;15.30;67.30
25732;DHT22;13585;50.864;4.406;2023-02-26T03:40:21;15.30;67.20
25732;DHT22;13585;50.864;4.406;2023-02-26T03:42:52;15.30;67.20
25732;DHT22;13585;50.864;4.406;2023-02-26T03:45:28;15.30;67.10
25732;DHT22;13585;50.864;4.406;2023-02-26T03:47:56;15.30;67.00
25732;DHT22;13585;50.864;4.406;2023-02-26T03:50:34;15.30;67.00
25732;DHT22;13585;50.864;4.406;2023-02-26T03:53:02;15.30;67.00
25732;DHT22;13585;50.864;4.406;2023-02-26T03:58:17;15.30;66.90
25732;DHT22;13585;50.864;4.406;2023-02-26T04:00:46;15.30;66.90
25732;DHT22;13585;50.864;4.406;2023-02-26T04:03:22;15.30;66.80
25732;DHT22;13585;50.864;4.406;2023-02-26T04:05:51;15.30;66.80
25732;DHT22;13585;50.864;4.406;2023-02-26T04:08:17;15.30;66.70
25732;DHT22;13585;50.864;4.406;2023-02-26T04:10:53;15.30;66.70
25732;DHT22;13585;50.864;4.406;2023-02-26T04:13:20;15.30;66.60
25732;DHT22;13585;50.864;4.406;2023-02-26T04:15:45;15.30;66.50
25732;DHT22;13585;50.864;4.406;2023-02-26T04:18:11;15.30;66.50
25732;DHT22;13585;50.864;4.406;2023-02-26T04:20:37;15.30;66.50
25732;DHT22;13585;50.864;4.406;2023-02-26T04:23:02;15.30;66.40
25732;DHT22;13585;50.864;4.406;2023-02-26T04:25:28;15.20;66.40
25732;DHT22;13585;50.864;4.406;2023-02-26T04:27:53;15.30;66.40
25732;DHT22;13585;50.864;4.406;2023-02-26T04:30:19;15.20;66.20
25732;DHT22;13585;50.864;4.406;2023-02-26T04:32:45;15.20;66.20
25732;DHT22;13585;50.864;4.406;2023-02-26T04:35:10;15.20;66.20
25732;DHT22;13585;50.864;4.406;2023-02-26T04:37:36;15.20;66.10
25732;DHT22;13585;50.864;4.406;2023-02-26T04:40:02;15.20;66.10
25732;DHT22;13585;50.864;4.406;2023-02-26T04:42:28;15.20;66.00
25732;DHT22;13585;50.864;4.406;2023-02-26T04:44:54;15.20;66.00
25732;DHT22;13585;50.864;4.406;2023-02-26T04:47:20;15.20;66.00
25732;DHT22;13585;50.864;4.406;2023-02-26T04:49:45;15.10;65.80
25732;DHT22;13585;50.864;4.406;2023-02-26T04:52:11;15.20;65.80
25732;DHT22;13585;50.864;4.406;2023-02-26T04:54:37;15.20;65.80
25732;DHT22;13585;50.864;4.406;2023-02-26T04:57:03;15.20;65.70
25732;DHT22;13585;50.864;4.406;2023-02-26T04:59:28;15.20;65.70
25732;DHT22;13585;50.864;4.406;2023-02-26T05:01:54;15.20;65.60
25732;DHT22;13585;50.864;4.406;2023-02-26T05:04:20;15.20;65.60
25732;DHT22;13585;50.864;4.406;2023-02-26T05:06:46;15.20;65.60
25732;DHT22;13585;50.864;4.406;2023-02-26T05:09:11;15.20;65.60
25732;DHT22;13585;50.864;4.406;2023-02-26T05:11:37;15.20;65.50
25732;DHT22;13585;50.864;4.406;2023-02-26T05:14:02;15.20;65.50
25732;DHT22;13585;50.864;4.406;2023-02-26T05:16:28;15.20;65.50
25732;DHT22;13585;50.864;4.406;2023-02-26T05:18:54;15.10;65.30
25732;DHT22;13585;50.864;4.406;2023-02-26T05:21:19;15.20;65.30
25732;DHT22;13585;50.864;4.406;2023-02-26T05:23:46;15.20;65.30
25732;DHT22;13585;50.864;4.406;2023-02-26T05:26:11;15.20;65.20
25732;DHT22;13585;50.864;4.406;2023-02-26T05:28:37;15.10;65.10
25732;DHT22;13585;50.864;4.406;2023-02-26T05:31:03;15.10;65.10
25732;DHT22;13585;50.864;4.406;2023-02-26T05:33:28;15.10;65.00
25732;DHT22;13585;50.864;4.406;2023-02-26T05:35:54;15.10;65.00
25732;DHT22;13585;50.864;4.406;2023-02-26T05:38:21;15.10;65.00
25732;DHT22;13585;50.864;4.406;2023-02-26T05:40:47;15.10;64.90
25732;DHT22;13585;50.864;4.406;2023-02-26T05:43:12;15.10;65.00
25732;DHT22;13585;50.864;4.406;2023-02-26T05:45:38;15.10;65.00
25732;DHT22;13585;50.864;4.406;2023-02-26T05:48:04;15.10;64.90
25732;DHT22;13585;50.864;4.406;2023-02-26T05:50:29;15.10;64.80
25732;DHT22;13585;50.864;4.406;2023-02-26T05:52:55;15.20;64.80
25732;DHT22;13585;50.864;4.406;2023-02-26T05:55:21;15.10;64.70
25732;DHT22;13585;50.864;4.406;2023-02-26T05:57:47;15.10;64.60
25732;DHT22;13585;50.864;4.406;2023-02-26T06:00:13;15.10;64.50
25732;DHT22;13585;50.864;4.406;2023-02-26T06:02:39;15.10;64.50
25732;DHT22;13585;50.864;4.406;2023-02-26T06:05:06;15.10;64.40
25732;DHT22;13585;50.864;4.406;2023-02-26T06:07:31;15.10;64.30
25732;DHT22;13585;50.864;4.406;2023-02-26T06:09:57;15.10;64.30
25732;DHT22;13585;50.864;4.406;2023-02-26T06:12:23;15.10;64.30
25732;DHT22;13585;50.864;4.406;2023-02-26T06:14:48;15.10;64.20
25732;DHT22;13585;50.864;4.406;2023-02-26T06:17:14;15.10;64.10
25732;DHT22;13585;50.864;4.406;2023-02-26T06:19:39;15.10;64.30
25732;DHT22;13585;50.864;4.406;2023-02-26T06:22:05;15.10;64.60
25732;DHT22;13585;50.864;4.406;2023-02-26T06:24:31;15.10;64.80
25732;DHT22;13585;50.864;4.406;2023-02-26T06:26:56;15.10;64.90
25732;DHT22;13585;50.864;4.406;2023-02-26T06:29:22;15.10;65.10
25732;DHT22;13585;50.864;4.406;2023-02-26T06:31:48;15.10;65.10
25732;DHT22;13585;50.864;4.406;2023-02-26T06:34:14;15.10;65.10
25732;DHT22;13585;50.864;4.406;2023-02-26T06:36:39;15.10;65.20
25732;DHT22;13585;50.864;4.406;2023-02-26T06:39:05;15.10;65.30
25732;DHT22;13585;50.864;4.406;2023-02-26T06:41:32;15.10;65.30
25732;DHT22;13585;50.864;4.406;2023-02-26T06:43:58;15.10;65.30
25732;DHT22;13585;50.864;4.406;2023-02-26T06:46:24;15.10;65.20
25732;DHT22;13585;50.864;4.406;2023-02-26T06:48:49;15.10;65.20
25732;DHT22;13585;50.864;4.406;2023-02-26T06:51:15;15.10;65.20
25732;DHT22;13585;50.864;4.406;2023-02-26T06:53:41;15.10;65.10
25732;DHT22;13585;50.864;4.406;2023-02-26T06:56:06;15.10;65.20
25732;DHT22;13585;50.864;4.406;2023-02-26T06:58:32;15.10;65.20
25732;DHT22;13585;50.864;4.406;2023-02-26T07:00:58;15.10;65.10
25732;DHT22;13585;50.864;4.406;2023-02-26T07:03:23;15.10;65.10
25732;DHT22;13585;50.864;4.406;2023-02-26T07:05:49;15.10;65.10
25732;DHT22;13585;50.864;4.406;2023-02-26T07:08:15;15.10;65.10
25732;DHT22;13585;50.864;4.406;2023-02-26T07:10:41;15.10;65.10
25732;DHT22;13585;50.864;4.406;2023-02-26T07:13:07;15.10;65.00
25732;DHT22;13585;50.864;4.406;2023-02-26T07:15:33;15.10;65.10
25732;DHT22;13585;50.864;4.406;2023-02-26T07:17:58;15.10;65.00
25732;DHT22;13585;50.864;4.406;2023-02-26T07:20:25;15.10;65.00
25732;DHT22;13585;50.864;4.406;2023-02-26T07:22:51;15.10;65.00
25732;DHT22;13585;50.864;4.406;2023-02-26T07:25:17;15.10;65.00
25732;DHT22;13585;50.864;4.406;2023-02-26T07:27:43;15.10;65.00
25732;DHT22;13585;50.864;4.406;2023-02-26T07:30:09;15.10;64.90
25732;DHT22;13585;50.864;4.406;2023-02-26T07:32:35;15.10;65.00
25732;DHT22;13585;50.864;4.406;2023-02-26T07:35:01;15.10;65.00
25732;DHT22;13585;50.864;4.406;2023-02-26T07:37:26;15.20;65.00
25732;DHT22;13585;50.864;4.406;2023-02-26T07:39:53;15.10;65.00
25732;DHT22;13585;50.864;4.406;2023-02-26T07:42:19;15.10;65.00
25732;DHT22;13585;50.864;4.406;2023-02-26T07:44:45;15.20;65.00
25732;DHT22;13585;50.864;4.406;2023-02-26T07:47:11;15.10;65.00
25732;DHT22;13585;50.864;4.406;2023-02-26T07:49:36;15.10;65.00
25732;DHT22;13585;50.864;4.406;2023-02-26T07:52:03;15.20;65.10
25732;DHT22;13585;50.864;4.406;2023-02-26T07:54:29;15.10;65.10
25732;DHT22;13585;50.864;4.406;2023-02-26T07:56:54;15.10;65.10
25732;DHT22;13585;50.864;4.406;2023-02-26T07:59:20;15.20;65.20
25732;DHT22;13585;50.864;4.406;2023-02-26T08:01:46;15.20;65.20
25732;DHT22;13585;50.864;4.406;2023-02-26T08:04:11;15.20;65.30
25732;DHT22;13585;50.864;4.406;2023-02-26T08:06:37;15.20;65.40
25732;DHT22;13585;50.864;4.406;2023-02-26T08:09:03;15.20;65.50
25732;DHT22;13585;50.864;4.406;2023-02-26T08:11:29;15.20;65.50
25732;DHT22;13585;50.864;4.406;2023-02-26T08:14:00;15.20;65.50
25732;DHT22;13585;50.864;4.406;2023-02-26T08:16:26;15.20;65.70
25732;DHT22;13585;50.864;4.406;2023-02-26T08:18:51;15.20;65.70
25732;DHT22;13585;50.864;4.406;2023-02-26T08:21:17;15.20;65.70
25732;DHT22;13585;50.864;4.406;2023-02-26T08:23:42;15.20;65.80
25732;DHT22;13585;50.864;4.406;2023-02-26T08:26:09;15.20;65.90
25732;DHT22;13585;50.864;4.406;2023-02-26T08:28:37;15.30;66.00
25732;DHT22;13585;50.864;4.406;2023-02-26T08:31:04;15.20;66.00
25732;DHT22;13585;50.864;4.406;2023-02-26T08:33:30;15.30;66.10
25732;DHT22;13585;50.864;4.406;2023-02-26T08:35:56;15.20;66.10
25732;DHT22;13585;50.864;4.406;2023-02-26T08:38:26;15.20;66.20
25732;DHT22;13585;50.864;4.406;2023-02-26T08:40:52;15.30;66.20
25732;DHT22;13585;50.864;4.406;2023-02-26T08:43:19;15.30;66.20
25732;DHT22;13585;50.864;4.406;2023-02-26T08:45:45;15.30;66.30
25732;DHT22;13585;50.864;4.406;2023-02-26T08:48:11;15.30;66.30
25732;DHT22;13585;50.864;4.406;2023-02-26T08:50:37;15.30;66.30
25732;DHT22;13585;50.864;4.406;2023-02-26T08:53:03;15.30;66.30
25732;DHT22;13585;50.864;4.406;2023-02-26T08:55:28;15.30;66.30
25732;DHT22;13585;50.864;4.406;2023-02-26T08:57:57;15.30;66.30
25732;DHT22;13585;50.864;4.406;2023-02-26T09:00:23;15.30;66.30
25732;DHT22;13585;50.864;4.406;2023-02-26T09:02:48;15.30;66.30
25732;DHT22;13585;50.864;4.406;2023-02-26T09:05:14;15.30;66.40
25732;DHT22;13585;50.864;4.406;2023-02-26T09:07:41;15.30;66.40
25732;DHT22;13585;50.864;4.406;2023-02-26T09:10:16;15.30;66.30
25732;DHT22;13585;50.864;4.406;2023-02-26T09:12:42;15.30;66.30
25732;DHT22;13585;50.864;4.406;2023-02-26T09:15:10;15.30;66.30
25732;DHT22;13585;50.864;4.406;2023-02-26T09:17:36;15.30;66.40
25732;DHT22;13585;50.864;4.406;2023-02-26T09:20:02;15.30;66.40
25732;DHT22;13585;50.864;4.406;2023-02-26T09:22:28;15.30;66.40
25732;DHT22;13585;50.864;4.406;2023-02-26T09:24:54;15.30;66.40
25732;DHT22;13585;50.864;4.406;2023-02-26T09:27:20;15.30;66.30
25732;DHT22;13585;50.864;4.406;2023-02-26T09:29:46;15.30;66.30
25732;DHT22;13585;50.864;4.406;2023-02-26T09:32:11;15.30;66.30
25732;DHT22;13585;50.864;4.406;2023-02-26T09:34:40;15.30;66.30
25732;DHT22;13585;50.864;4.406;2023-02-26T09:37:07;15.30;66.30
25732;DHT22;13585;50.864;4.406;2023-02-26T09:39:34;15.30;66.30
25732;DHT22;13585;50.864;4.406;2023-02-26T09:44:46;15.30;66.30
25732;DHT22;13585;50.864;4.406;2023-02-26T09:47:41;15.30;66.20
25732;DHT22;13585;50.864;4.406;2023-02-26T09:50:18;15.30;66.30
25732;DHT22;13585;50.864;4.406;2023-02-26T09:52:52;15.30;66.20
25732;DHT22;13585;50.864;4.406;2023-02-26T09:55:29;15.30;66.10
25732;DHT22;13585;50.864;4.406;2023-02-26T09:57:59;15.30;66.10
25732;DHT22;13585;50.864;4.406;2023-02-26T10:00:46;15.30;66.10
25732;DHT22;13585;50.864;4.406;2023-02-26T10:05:52;15.20;66.00
25732;DHT22;13585;50.864;4.406;2023-02-26T10:08:29;15.20;65.90
25732;DHT22;13585;50.864;4.406;2023-02-26T10:13:47;15.20;65.90
25732;DHT22;13585;50.864;4.406;2023-02-26T10:16:17;15.20;65.90
25732;DHT22;13585;50.864;4.406;2023-02-26T10:19:12;15.20;65.70
25732;DHT22;13585;50.864;4.406;2023-02-26T10:21:39;15.20;65.90
25732;DHT22;13585;50.864;4.406;2023-02-26T10:24:16;15.20;65.70
25732;DHT22;13585;50.864;4.406;2023-02-26T10:26:45;15.20;66.50
25732;DHT22;13585;50.864;4.406;2023-02-26T10:37:32;15.20;65.50
25732;DHT22;13585;50.864;4.406;2023-02-26T10:43:19;15.20;65.50
25732;DHT22;13585;50.864;4.406;2023-02-26T10:46:33;15.20;65.50
25732;DHT22;13585;50.864;4.406;2023-02-26T10:51:34;15.20;65.40
25732;DHT22;13585;50.864;4.406;2023-02-26T10:54:18;15.20;65.30
25732;DHT22;13585;50.864;4.406;2023-02-26T10:56:46;15.20;65.40
25732;DHT22;13585;50.864;4.406;2023-02-26T10:59:17;15.20;65.30
25732;DHT22;13585;50.864;4.406;2023-02-26T11:01:46;15.20;65.40
25732;DHT22;13585;50.864;4.406;2023-02-26T11:04:18;15.20;65.40
25732;DHT22;13585;50.864;4.406;2023-02-26T11:09:42;15.30;65.70
25732;DHT22;13585;50.864;4.406;2023-02-26T11:14:38;15.20;65.50
25732;DHT22;13585;50.864;4.406;2023-02-26T11:17:17;15.30;65.60
25732;DHT22;13585;50.864;4.406;2023-02-26T11:20:00;15.20;65.60
25732;DHT22;13585;50.864;4.406;2023-02-26T11:22:28;15.20;65.60
25732;DHT22;13585;50.864;4.406;2023-02-26T11:24:57;15.30;65.60
25732;DHT22;13585;50.864;4.406;2023-02-26T11:27:26;15.30;65.60
25732;DHT22;13585;50.864;4.406;2023-02-26T11:29:59;15.30;65.70
25732;DHT22;13585;50.864;4.406;2023-02-26T11:32:35;15.30;65.80
25732;DHT22;13585;50.864;4.406;2023-02-26T11:35:02;15.30;65.80
25732;DHT22;13585;50.864;4.406;2023-02-26T11:37:37;15.30;66.00
25732;DHT22;13585;50.864;4.406;2023-02-26T11:40:12;15.30;66.30
25732;DHT22;13585;50.864;4.406;2023-02-26T11:42:53;15.40;66.10
25732;DHT22;13585;50.864;4.406;2023-02-26T11:45:20;15.40;66.70
25732;DHT22;13585;50.864;4.406;2023-02-26T11:47:48;15.40;67.00
25732;DHT22;13585;50.864;4.406;2023-02-26T11:50:18;15.40;67.70
25732;DHT22;13585;50.864;4.406;2023-02-26T11:52:46;15.40;68.30
25732;DHT22;13585;50.864;4.406;2023-02-26T11:57:44;15.40;69.50
25732;DHT22;13585;50.864;4.406;2023-02-26T12:00:24;15.50;69.80
25732;DHT22;13585;50.864;4.406;2023-02-26T12:02:58;15.50;70.90
25732;DHT22;13585;50.864;4.406;2023-02-26T12:05:25;15.50;70.20
25732;DHT22;13585;50.864;4.406;2023-02-26T12:07:50;15.60;70.40
25732;DHT22;13585;50.864;4.406;2023-02-26T12:10:20;15.60;70.60
25732;DHT22;13585;50.864;4.406;2023-02-26T12:13:16;15.60;70.80
25732;DHT22;13585;50.864;4.406;2023-02-26T12:15:58;15.60;71.00
25732;DHT22;13585;50.864;4.406;2023-02-26T12:24:15;15.60;71.40
25732;DHT22;13585;50.864;4.406;2023-02-26T12:41:21;15.60;71.80
25732;DHT22;13585;50.864;4.406;2023-02-26T12:43:50;15.60;71.80
25732;DHT22;13585;50.864;4.406;2023-02-26T12:52:24;15.60;71.80
25732;DHT22;13585;50.864;4.406;2023-02-26T13:08:31;15.70;71.70
25732;DHT22;13585;50.864;4.406;2023-02-26T13:13:59;15.70;71.70
25732;DHT22;13585;50.864;4.406;2023-02-26T13:21:45;15.80;71.60
25732;DHT22;13585;50.864;4.406;2023-02-26T13:24:31;15.80;71.60
25732;DHT22;13585;50.864;4.406;2023-02-26T13:29:38;15.90;71.40
25732;DHT22;13585;50.864;4.406;2023-02-26T13:32:12;15.90;71.40
25732;DHT22;13585;50.864;4.406;2023-02-26T13:35:04;15.90;71.20
25732;DHT22;13585;50.864;4.406;2023-02-26T13:37:38;15.90;71.10
25732;DHT22;13585;50.864;4.406;2023-02-26T13:40:29;16.00;71.00
25732;DHT22;13585;50.864;4.406;2023-02-26T13:43:23;16.10;71.00
25732;DHT22;13585;50.864;4.406;2023-02-26T13:48:36;16.20;70.60
25732;DHT22;13585;50.864;4.406;2023-02-26T13:54:07;16.20;70.40
25732;DHT22;13585;50.864;4.406;2023-02-26T13:59:03;16.30;70.10
25732;DHT22;13585;50.864;4.406;2023-02-26T14:01:54;16.30;70.10
25732;DHT22;13585;50.864;4.406;2023-02-26T14:04:24;16.30;70.00
25732;DHT22;13585;50.864;4.406;2023-02-26T14:10:11;16.40;69.80
25732;DHT22;13585;50.864;4.406;2023-02-26T14:12:42;16.40;69.80
25732;DHT22;13585;50.864;4.406;2023-02-26T14:17:39;16.40;69.70
25732;DHT22;13585;50.864;4.406;2023-02-26T14:20:24;16.40;69.60
25732;DHT22;13585;50.864;4.406;2023-02-26T14:25:39;16.40;69.70
25732;DHT22;13585;50.864;4.406;2023-02-26T14:31:13;16.40;69.70
25732;DHT22;13585;50.864;4.406;2023-02-26T14:36:25;16.30;69.70
25732;DHT22;13585;50.864;4.406;2023-02-26T14:38:54;16.30;69.80
25732;DHT22;13585;50.864;4.406;2023-02-26T14:41:28;16.30;69.70
25732;DHT22;13585;50.864;4.406;2023-02-26T14:44:03;16.20;69.70
25732;DHT22;13585;50.864;4.406;2023-02-26T14:46:31;16.30;69.80
25732;DHT22;13585;50.864;4.406;2023-02-26T14:48:58;16.30;69.70
25732;DHT22;13585;50.864;4.406;2023-02-26T14:51:38;16.30;69.70
25732;DHT22;13585;50.864;4.406;2023-02-26T14:54:25;16.30;69.80
25732;DHT22;13585;50.864;4.406;2023-02-26T14:57:17;16.20;69.70
25732;DHT22;13585;50.864;4.406;2023-02-26T15:00:12;16.20;69.70
25732;DHT22;13585;50.864;4.406;2023-02-26T15:03:13;16.20;69.60
25732;DHT22;13585;50.864;4.406;2023-02-26T15:06:01;16.20;69.60
25732;DHT22;13585;50.864;4.406;2023-02-26T15:08:50;16.20;69.50
25732;DHT22;13585;50.864;4.406;2023-02-26T15:11:36;16.20;69.50
25732;DHT22;13585;50.864;4.406;2023-02-26T15:24:32;16.10;69.40
25732;DHT22;13585;50.864;4.406;2023-02-26T15:27:01;16.20;69.40
25732;DHT22;13585;50.864;4.406;2023-02-26T15:29:30;16.10;69.40
25732;DHT22;13585;50.864;4.406;2023-02-26T15:31:59;16.20;69.40
25732;DHT22;13585;50.864;4.406;2023-02-26T15:34:28;16.10;69.40
25732;DHT22;13585;50.864;4.406;2023-02-26T15:36:56;16.10;69.30
25732;DHT22;13585;50.864;4.406;2023-02-26T15:39:23;16.20;69.30
25732;DHT22;13585;50.864;4.406;2023-02-26T15:41:50;16.10;69.20
25732;DHT22;13585;50.864;4.406;2023-02-26T15:44:26;16.10;69.20
25732;DHT22;13585;50.864;4.406;2023-02-26T15:46:56;16.10;69.10
25732;DHT22;13585;50.864;4.406;2023-02-26T15:49:32;16.10;69.10
25732;DHT22;13585;50.864;4.406;2023-02-26T15:51:59;16.10;69.10
25732;DHT22;13585;50.864;4.406;2023-02-26T15:54:34;16.10;68.90
25732;DHT22;13585;50.864;4.406;2023-02-26T15:57:03;16.10;69.00
25732;DHT22;13585;50.864;4.406;2023-02-26T15:59:31;16.10;68.90
25732;DHT22;13585;50.864;4.406;2023-02-26T16:01:57;16.10;68.90
25732;DHT22;13585;50.864;4.406;2023-02-26T16:04:26;16.10;68.80
25732;DHT22;13585;50.864;4.406;2023-02-26T16:06:54;16.20;68.90
25732;DHT22;13585;50.864;4.406;2023-02-26T16:09:32;16.20;68.80
25732;DHT22;13585;50.864;4.406;2023-02-26T16:12:03;16.10;68.70
25732;DHT22;13585;50.864;4.406;2023-02-26T16:14:32;16.10;68.70
25732;DHT22;13585;50.864;4.406;2023-02-26T16:16:59;16.10;68.60
25732;DHT22;13585;50.864;4.406;2023-02-26T16:19:34;16.10;68.60
25732;DHT22;13585;50.864;4.406;2023-02-26T16:22:29;16.10;68.60
25732;DHT22;13585;50.864;4.406;2023-02-26T16:27:42;16.10;68.50
25732;DHT22;13585;50.864;4.406;2023-02-26T16:30:17;16.10;68.40
25732;DHT22;13585;50.864;4.406;2023-02-26T16:32:52;16.00;68.40
25732;DHT22;13585;50.864;4.406;2023-02-26T16:35:20;16.00;68.30
25732;DHT22;13585;50.864;4.406;2023-02-26T16:37:52;16.10;68.40
25732;DHT22;13585;50.864;4.406;2023-02-26T16:40:27;16.10;68.30
25732;DHT22;13585;50.864;4.406;2023-02-26T16:43:05;16.00;69.00
25732;DHT22;13585;50.864;4.406;2023-02-26T16:45:55;16.00;68.20
25732;DHT22;13585;50.864;4.406;2023-02-26T16:51:18;16.00;68.10
25732;DHT22;13585;50.864;4.406;2023-02-26T16:53:48;16.00;68.10
25732;DHT22;13585;50.864;4.406;2023-02-26T16:56:19;16.00;68.10
25732;DHT22;13585;50.864;4.406;2023-02-26T16:58:53;16.00;68.00
25732;DHT22;13585;50.864;4.406;2023-02-26T17:01:21;16.00;68.00
25732;DHT22;13585;50.864;4.406;2023-02-26T17:03:49;16.00;68.00
25732;DHT22;13585;50.864;4.406;2023-02-26T17:06:21;15.90;68.00
25732;DHT22;13585;50.864;4.406;2023-02-26T17:08:51;15.90;68.00
25732;DHT22;13585;50.864;4.406;2023-02-26T17:11:34;15.90;68.00
25732;DHT22;13585;50.864;4.406;2023-02-26T17:14:23;15.90;68.00
25732;DHT22;13585;50.864;4.406;2023-02-26T17:16:50;15.90;68.80
25732;DHT22;13585;50.864;4.406;2023-02-26T17:19:17;15.90;68.00
25732;DHT22;13585;50.864;4.406;2023-02-26T17:21:52;15.90;68.00
25732;DHT22;13585;50.864;4.406;2023-02-26T17:24:33;15.90;68.00
25732;DHT22;13585;50.864;4.406;2023-02-26T17:27:01;15.90;68.00
25732;DHT22;13585;50.864;4.406;2023-02-26T17:29:39;15.90;68.00
25732;DHT22;13585;50.864;4.406;2023-02-26T17:32:19;16.00;68.00
25732;DHT22;13585;50.864;4.406;2023-02-26T17:34:46;15.90;68.00
25732;DHT22;13585;50.864;4.406;2023-02-26T17:37:12;15.90;68.00
25732;DHT22;13585;50.864;4.406;2023-02-26T17:39:39;15.90;68.00
25732;DHT22;13585;50.864;4.406;2023-02-26T17:42:12;15.90;68.00
25732;DHT22;13585;50.864;4.406;2023-02-26T17:44:38;15.90;68.40
25732;DHT22;13585;50.864;4.406;2023-02-26T17:47:04;15.90;68.10
25732;DHT22;13585;50.864;4.406;2023-02-26T17:49:30;15.90;68.20
25732;DHT22;13585;50.864;4.406;2023-02-26T17:51:56;15.90;68.20
25732;DHT22;13585;50.864;4.406;2023-02-26T17:54:21;15.90;68.20
25732;DHT22;13585;50.864;4.406;2023-02-26T17:56:47;15.80;68.20
25732;DHT22;13585;50.864;4.406;2023-02-26T17:59:14;15.80;68.20
25732;DHT22;13585;50.864;4.406;2023-02-26T18:01:40;15.80;68.20
25732;DHT22;13585;50.864;4.406;2023-02-26T18:04:06;15.80;68.20
25732;DHT22;13585;50.864;4.406;2023-02-26T18:06:56;15.80;68.20
25732;DHT22;13585;50.864;4.406;2023-02-26T18:09:22;15.80;68.30
25732;DHT22;13585;50.864;4.406;2023-02-26T18:11:47;15.80;68.30
25732;DHT22;13585;50.864;4.406;2023-02-26T18:14:25;15.90;68.40
25732;DHT22;13585;50.864;4.406;2023-02-26T18:16:51;15.80;68.50
25732;DHT22;13585;50.864;4.406;2023-02-26T18:19:16;15.80;68.40
25732;DHT22;13585;50.864;4.406;2023-02-26T18:21:42;15.80;68.50
25732;DHT22;13585;50.864;4.406;2023-02-26T18:24:08;15.80;68.50
25732;DHT22;13585;50.864;4.406;2023-02-26T18:26:34;15.80;68.70
25732;DHT22;13585;50.864;4.406;2023-02-26T18:28:59;15.80;68.80
25732;DHT22;13585;50.864;4.406;2023-02-26T18:31:25;15.80;68.90
25732;DHT22;13585;50.864;4.406;2023-02-26T18:33:58;15.80;68.80
25732;DHT22;13585;50.864;4.406;2023-02-26T18:36:31;15.80;68.90
25732;DHT22;13585;50.864;4.406;2023-02-26T18:39:04;15.90;69.10
25732;DHT22;13585;50.864;4.406;2023-02-26T18:41:31;15.80;69.00
25732;DHT22;13585;50.864;4.406;2023-02-26T18:43:57;15.80;69.00